Latest Weather Observations for Cummins Airport

IDS60801

Issued at 1:35 pm CST Tuesday 2 September 2014 (issued every 30 minutes, with the page automatically refreshed every 10 minutes)

About weather observations | Map of weather stations | Latest weather observations for SA | Other Formats
Station Details ID: 018217 Name: CUMMINS AERO Lat: -34.25 Lon: 135.71 Height: 60.11 m
Data from the previous 72 hours. | See also: Recent months at Cummins Airport
Date/Time
CST
Temp
°C
App
Temp
°C
Dew
Point
Rel
Hum
%
Delta-T
°C
Wind Press
QNH
hPa
Press
MSL
hPa
Rain
since 9 am
mm
Dir
 
Spd
km/h
Gust
km/h
Spd
kts
Gust
kts
02/01:30pm 13.5 10.8 9.0 74 2.3 S 13 19 7 10 1026.7 1026.8 0.0
02/01:00pm 13.6 9.6 8.4 71 2.6 S 19 28 10 15 1027.0 1027.1 0.0
02/12:30pm 14.0 9.5 7.1 63 3.4 S 20 28 11 15 1027.3 1027.4 0.0
02/12:00pm 13.9 9.8 8.7 71 2.6 SW 20 28 11 15 1027.5 1027.6 0.0
02/11:30am 13.1 10.3 8.4 73 2.3 S 13 17 7 9 1027.8 1027.9 0.0
02/11:00am 12.9 8.8 7.8 71 2.5 SSW 19 24 10 13 1027.9 1028.0 0.0
02/10:30am 12.4 8.1 7.7 73 2.3 S 20 26 11 14 1027.8 1027.9 0.0
02/10:00am 12.9 9.5 9.0 77 2.0 SSW 17 24 9 13 1027.7 1027.8 0.0
02/09:30am 11.2 8.5 9.1 87 1.0 S 13 19 7 10 1027.6 1027.7 0.0
02/09:00am 10.1 8.3 9.6 97 0.2 S 9 13 5 7 1027.4 1027.5 1.4
02/08:30am 8.5 8.2 8.5 100 0.0 CALM 0 0 0 0 1027.2 1027.3 1.4
02/08:00am 6.3 5.5 6.3 100 0.0 CALM 0 0 0 0 1027.1 1027.2 1.4
02/07:30am 4.1 1.5 4.1 100 0.0 NNE 7 9 4 5 1027.3 1027.4 1.4
02/07:00am 1.8 -1.2 1.8 100 0.0 ENE 7 9 4 5 1026.7 1026.8 1.4
02/06:30am 1.9 0.2 1.9 100 0.0 CALM 0 0 0 0 1026.4 1026.5 1.4
02/06:00am 3.1 1.6 3.1 100 0.0 CALM 0 0 0 0 1026.1 1026.2 1.4
02/05:30am 2.8 1.3 2.8 100 0.0 CALM 0 0 0 0 1025.7 1025.8 1.4
02/05:00am 3.7 2.3 3.7 100 0.0 CALM 0 0 0 0 1025.4 1025.4 1.4
02/04:30am 5.6 3.5 5.6 100 0.0 SSW 6 9 3 5 1025.2 1025.2 1.4
02/04:00am 6.2 4.0 6.2 100 0.0 SSW 7 9 4 5 1024.8 1024.8 1.4
02/03:30am 6.9 4.5 6.9 100 0.0 SW 9 11 5 6 1024.6 1024.6 1.4
02/03:00am 6.6 4.5 6.6 100 0.0 S 7 9 4 5 1024.5 1024.5 1.4
02/02:30am 6.5 3.6 6.5 100 0.0 SSW 11 15 6 8 1024.5 1024.5 1.4
02/02:00am 6.5 4.6 6.5 100 0.0 SSW 6 9 3 5 1024.4 1024.4 1.4
02/01:30am 5.8 4.5 5.8 100 0.0 W 2 7 1 4 1024.4 1024.4 1.4
02/01:00am 4.5 3.3 4.5 100 0.0 CALM 0 0 0 0 1024.3 1024.3 1.4
02/12:30am 6.2 4.0 6.2 100 0.0 S 7 9 4 5 1024.1 1024.1 1.4
02/12:00am 6.5 4.0 6.5 100 0.0 W 9 11 5 6 1023.9 1023.9 1.4
 
Date/Time
CST
Temp
°C
App
Temp
°C
Dew
Point
Rel
Hum
%
Delta-T
°C
Wind Press
QNH
hPa
Press
MSL
hPa
Rain
since 9 am
mm
Dir
 
Spd
km/h
Gust
km/h
Spd
kts
Gust
kts
01/11:30pm 7.4 3.9 7.4 100 0.0 SW 15 19 8 10 1023.8 1023.8 1.4
01/11:00pm 8.0 4.3 8.0 100 0.0 SW 17 26 9 14 1023.7 1023.7 1.4
01/10:30pm 6.4 3.0 5.8 96 0.3 SSW 13 19 7 10 1023.9 1023.9 1.0
01/10:00pm 5.8 2.2 5.1 95 0.3 S 13 17 7 9 1023.4 1023.4 1.0
01/09:30pm 6.7 3.5 5.3 91 0.6 SW 11 15 6 8 1022.8 1022.8 1.0
01/09:00pm 6.5 3.8 5.6 94 0.4 SW 9 11 5 6 1022.7 1022.7 1.0
01/08:30pm 6.3 3.7 6.0 98 0.1 SSW 9 13 5 7 1022.2 1022.2 1.0
01/08:00pm 6.9 4.0 6.6 98 0.1 SSW 11 15 6 8 1021.8 1021.8 1.0
01/07:30pm 6.7 3.8 6.7 100 0.0 SSW 11 13 6 7 1021.2 1021.2 1.0
01/07:00pm 7.9 4.6 6.5 91 0.6 SW 13 17 7 9 1020.7 1020.7 1.0
01/06:30pm 9.8 3.2 6.0 77 1.7 SW 30 41 16 22 1020.2 1020.2 1.0
01/06:00pm 10.3 5.1 5.7 73 2.1 SW 22 30 12 16 1019.5 1019.5 1.0
01/05:30pm 11.6 5.2 5.3 65 2.9 SW 28 37 15 20 1019.0 1019.0 1.0
01/05:00pm 11.8 5.2 6.1 68 2.7 WSW 30 39 16 21 1018.5 1018.5 1.0
01/04:30pm 12.7 6.2 4.9 59 3.6 WSW 28 39 15 21 1018.0 1018.0 1.0
01/04:00pm 12.6 7.5 7.5 71 2.5 WSW 24 35 13 19 1017.6 1017.6 1.0
01/03:49pm 11.9 5.0 7.2 73 2.3 WSW 33 52 18 28 1017.5 1017.5 1.0
01/03:30pm 14.4 8.3 6.7 60 3.7 WSW 28 39 15 21 1017.1 1017.1 1.0
01/03:08pm 13.2 6.1 6.5 64 3.2 SW 33 52 18 28 1016.8 1016.8 1.0
01/03:00pm 13.6 6.5 6.5 62 3.4 WSW 33 50 18 27 1016.7 1016.7 1.0
01/02:53pm 14.1 7.5 7.9 66 3.1 WSW 32 50 17 27 1016.5 1016.5 1.0
01/02:30pm 13.5 7.6 9.2 75 2.2 WSW 30 39 16 21 1016.5 1016.5 1.0
01/02:00pm 11.5 6.4 10.6 94 0.5 SW 28 43 15 23 1016.6 1016.6 1.0
01/01:30pm 12.4 9.6 11.5 94 0.5 WSW 17 20 9 11 1016.5 1016.5 1.0
01/01:00pm 10.4 4.9 10.4 100 0.0 SW 30 41 16 22 1016.9 1016.9 0.8
01/12:37pm 13.2 6.7 8.1 71 2.5 WSW 32 50 17 27 1016.4 1016.4 0.0
01/12:30pm 14.8 9.1 8.3 65 3.3 W 28 33 15 18 1016.2 1016.2 0.0
01/12:00pm 13.2 7.3 9.1 76 2.1 W 30 41 16 22 1016.4 1016.4 0.0
01/11:30am 15.6 9.4 6.3 54 4.5 WSW 28 37 15 20 1016.2 1016.2 0.0
01/11:00am 15.1 9.1 7.2 59 3.9 W 28 37 15 20 1016.2 1016.2 0.0
01/10:30am 14.9 10.3 9.5 70 2.8 W 24 33 13 18 1016.3 1016.3 0.0
01/10:00am 14.0 10.6 9.2 73 2.5 WSW 17 24 9 13 1016.2 1016.2 0.0
01/09:30am 13.5 10.4 10.3 81 1.7 WSW 17 24 9 13 1016.1 1016.1 0.0
01/09:00am 12.3 10.9 12.3 100 0.0 WSW 11 15 6 8 1015.9 1015.9 1.8
01/08:30am 10.7 10.2 10.7 100 0.0 W 4 9 2 5 1015.8 1015.8 1.8
01/08:00am 8.3 6.8 8.3 100 0.0 W 6 9 3 5 1015.4 1015.4 1.8
01/07:30am 7.4 5.7 7.4 100 0.0 WSW 6 7 3 4 1014.9 1014.9 1.8
01/07:00am 8.4 8.0 8.4 100 0.0 CALM 0 0 0 0 1014.5 1014.5 1.8
01/06:30am 9.4 9.3 9.4 100 0.0 CALM 0 0 0 0 1014.4 1014.4 1.8
01/06:00am 10.2 9.9 10.2 100 0.0 SSW 2 6 1 3 1014.3 1014.3 1.6
01/05:30am 10.7 9.6 10.7 100 0.0 SSW 7 9 4 5 1014.0 1014.0 1.6
01/05:00am 11.1 9.0 11.1 100 0.0 SW 13 20 7 11 1013.8 1013.8 1.6
01/04:30am 11.1 10.3 11.1 100 0.0 WSW 6 9 3 5 1013.3 1013.3 1.4
01/04:00am 11.1 10.1 11.1 100 0.0 SSW 7 11 4 6 1013.0 1013.0 1.4
01/03:30am 11.2 9.5 11.2 100 0.0 SSW 11 17 6 9 1012.9 1012.9 1.4
01/03:00am 11.4 9.8 11.4 100 0.0 W 11 13 6 7 1013.1 1013.1 1.4
01/02:30am 11.5 9.9 11.5 100 0.0 W 11 17 6 9 1013.1 1013.1 1.2
01/02:00am 11.2 10.3 11.2 100 0.0 WNW 7 9 4 5 1012.8 1012.8 1.0
01/01:30am 11.4 10.5 11.4 100 0.0 WNW 7 9 4 5 1012.9 1012.9 1.0
01/01:00am 11.7 10.9 11.7 100 0.0 NW 7 9 4 5 1013.3 1013.3 1.0
01/12:30am 11.8 11.2 11.8 100 0.0 WNW 6 9 3 5 1013.1 1013.1 1.0
01/12:00am 11.9 10.8 11.9 100 0.0 NW 9 11 5 6 1013.2 1013.2 0.8
 
Date/Time
CST
Temp
°C
App
Temp
°C
Dew
Point
Rel
Hum
%
Delta-T
°C
Wind Press
QNH
hPa
Press
MSL
hPa
Rain
since 9 am
mm
Dir
 
Spd
km/h
Gust
km/h
Spd
kts
Gust
kts
31/11:30pm 11.8 10.3 11.8 100 0.0 W 11 13 6 7 1012.8 1012.8 0.8
31/11:00pm 11.8 10.7 11.8 100 0.0 W 9 11 5 6 1012.9 1012.9 0.8
31/10:30pm 11.9 10.8 11.9 100 0.0 NW 9 11 5 6 1013.1 1013.1 0.6
31/10:00pm 12.0 11.3 12.0 100 0.0 WNW 7 9 4 5 1012.9 1012.9 0.2
31/09:30pm 12.4 11.4 12.4 100 0.0 SW 9 11 5 6 1012.8 1012.8 0.0
31/09:00pm 12.4 11.1 12.4 100 0.0 SW 11 13 6 7 1012.6 1012.6 0.0
31/08:30pm 12.4 11.8 12.4 100 0.0 SSW 7 11 4 6 1012.4 1012.4 0.0
31/08:00pm 12.6 12.1 12.6 100 0.0 SSW 7 11 4 6 1012.3 1012.3 0.0
31/07:30pm 13.0 12.2 13.0 100 0.0 SW 9 11 5 6 1012.3 1012.3 0.0
31/07:00pm 13.2 11.7 13.2 100 0.0 SSW 13 19 7 10 1012.1 1012.1 0.0
31/06:30pm 13.7 13.5 13.7 100 0.0 SSW 7 9 4 5 1012.0 1012.0 0.0
31/06:00pm 14.3 12.4 14.3 100 0.0 WSW 17 20 9 11 1011.9 1011.9 0.0
31/05:30pm 14.8 13.5 14.8 100 0.0 WSW 15 20 8 11 1011.7 1011.7 0.0
31/05:00pm 14.9 14.4 14.9 100 0.0 W 11 15 6 8 1011.2 1011.2 0.0
31/04:30pm 15.3 13.0 13.1 87 1.2 W 17 20 9 11 1011.3 1011.3 0.0
31/04:00pm 16.4 12.8 10.0 66 3.4 W 19 26 10 14 1011.4 1011.4 0.0
31/03:30pm 17.8 14.9 8.1 53 5.0 WNW 13 17 7 9 1010.4 1010.5 0.0
31/03:00pm 18.2 14.5 6.4 46 5.9 W 15 20 8 11 1010.2 1010.3 0.0
31/02:30pm 19.2 14.8 4.9 39 6.9 W 17 24 9 13 1010.4 1010.5 0.0
31/02:00pm 19.5 15.6 7.3 45 6.2 NW 17 24 9 13 1011.2 1011.2 0.0
31/01:30pm 17.9 13.6 5.2 43 6.1 NNW 17 24 9 13 1011.2 1011.2 0.0
31/01:00pm 17.8 14.6 6.7 48 5.5 NW 13 20 7 11 1011.5 1011.5 0.0
31/12:30pm 17.7 16.2 6.9 49 5.4 NW 4 11 2 6 1011.3 1011.3 0.0
31/12:00pm 16.0 13.3 7.2 56 4.4 N 11 17 6 9 1011.6 1011.6 0.0
31/11:30am 16.4 11.9 6.2 51 5.0 N 19 26 10 14 1012.3 1012.3 0.0
31/11:00am 16.3 11.8 6.2 51 4.9 N 19 24 10 13 1012.4 1012.4 0.0
31/10:30am 14.2 12.5 5.8 57 4.0 NE 4 13 2 7 1013.1 1013.1 0.0
31/10:00am 14.1 11.8 5.5 56 4.1 N 7 9 4 5 1013.9 1013.9 0.0
31/09:30am 14.5 10.9 5.0 53 4.5 N 13 17 7 9 1013.7 1013.7 0.0
31/09:00am 13.6 9.2 5.0 56 4.0 NNE 17 22 9 12 1013.7 1013.7 0.0
31/08:30am 12.7 8.7 4.7 58 3.7 NNE 15 24 8 13 1013.7 1013.7 0.0
31/08:00am 11.1 6.5 3.9 61 3.2 NNE 17 20 9 11 1013.6 1013.6 0.0
31/07:30am 10.5 6.5 2.8 59 3.3 NNE 13 19 7 10 1013.7 1013.7 0.0
31/07:00am 9.7 5.6 2.3 60 3.1 NNE 13 17 7 9 1013.6 1013.6 0.0
31/06:30am 9.8 5.8 2.9 62 3.0 NE 13 15 7 8 1013.6 1013.6 0.0
31/06:00am 9.4 5.5 3.4 66 2.6 NE 13 15 7 8 1013.9 1013.9 0.0
31/05:30am 9.8 6.3 3.5 65 2.7 NE 11 15 6 8 1013.8 1013.8 0.0
31/05:00am 8.2 4.5 4.4 77 1.7 E 13 17 7 9 1014.0 1014.0 0.0
31/04:30am 7.4 4.9 4.7 83 1.2 E 7 9 4 5 1014.0 1014.0 0.0
31/04:00am 7.8 4.8 4.0 77 1.6 WSW 9 13 5 7 1014.2 1014.2 0.0
31/03:30am 8.0 6.8 4.6 79 1.5 CALM 0 0 0 0 1014.0 1014.0 0.0
31/03:00am 9.9 6.7 3.2 63 2.9 WSW 9 13 5 7 1014.0 1014.0 0.0
31/02:30am 10.8 7.0 1.9 54 3.8 NE 11 13 6 7 1013.6 1013.6 0.0
31/02:00am 10.2 7.0 2.8 60 3.2 NE 9 13 5 7 1014.0 1014.0 0.0
31/01:30am 9.9 6.6 2.5 60 3.2 NNE 9 11 5 6 1014.2 1014.2 0.0
31/01:00am 10.0 6.8 2.8 61 3.1 NNE 9 13 5 7 1014.4 1014.4 0.0
31/12:30am 9.8 6.8 2.2 59 3.2 NNE 7 9 4 5 1014.5 1014.5 0.0
31/12:00am 10.6 6.0 1.4 53 3.9 NNE 15 17 8 9 1014.3 1014.3 0.0
 
Date/Time
CST
Temp
°C
App
Temp
°C
Dew
Point
Rel
Hum
%
Delta-T
°C
Wind Press
QNH
hPa
Press
MSL
hPa
Rain
since 9 am
mm
Dir
 
Spd
km/h
Gust
km/h
Spd
kts
Gust
kts
30/11:30pm 9.9 5.8 2.0 58 3.3 NNE 13 17 7 9 1014.9 1014.9 0.0
30/11:00pm 10.2 6.1 2.3 58 3.4 NNE 13 17 7 9 1015.1 1015.1 0.0
30/10:30pm 10.6 6.6 2.9 59 3.3 NNE 13 17 7 9 1015.5 1015.5 0.0
30/10:00pm 9.1 5.6 3.7 69 2.4 NNE 11 13 6 7 1015.8 1015.8 0.0
30/09:30pm 10.3 6.4 3.6 63 2.9 NE 13 17 7 9 1016.0 1016.0 0.0
30/09:00pm 9.7 6.3 3.9 67 2.5 NE 11 13 6 7 1016.2 1016.2 0.0
30/08:30pm 9.8 6.4 4.2 68 2.5 NNE 11 13 6 7 1016.2 1016.2 0.0
30/08:00pm 10.4 6.8 5.0 69 2.5 NNE 13 15 7 8 1016.4 1016.4 0.0
30/07:30pm 11.3 8.3 6.2 71 2.4 NE 11 13 6 7 1016.5 1016.5 0.0
30/07:00pm 12.4 9.6 6.9 69 2.6 NE 11 13 6 7 1016.4 1016.4 0.0
30/06:30pm 13.3 10.3 7.7 69 2.8 NE 13 13 7 7 1016.5 1016.5 0.0
30/06:00pm 14.9 12.5 8.6 66 3.2 NE 11 13 6 7 1016.5 1016.5 0.0
30/05:30pm 17.0 15.1 8.9 59 4.2 NNE 9 11 5 6 1016.5 1016.5 0.0
30/05:00pm 19.1 16.0 7.2 46 6.0 N 13 19 7 10 1016.4 1016.4 0.0
30/04:30pm 19.3 16.7 7.7 47 5.9 N 11 13 6 7 1016.5 1016.5 0.0
30/04:00pm 20.5 17.1 6.1 39 7.2 N 13 17 7 9 1016.8 1016.8 0.0
30/03:30pm 22.9 17.8 2.9 27 9.6 N 19 26 10 14 1016.7 1016.7 0.0
30/03:00pm 24.0 20.0 4.9 29 9.6 N 15 20 8 11 1017.0 1017.0 0.0
30/02:30pm 25.1 18.7 3.1 24 10.7 N 26 37 14 20 1017.1 1017.1 0.0
30/02:00pm 24.0 17.9 2.8 25 10.2 N 24 32 13 17 1017.5 1017.5 0.0

Other Formats:

Comma delimited format used in spreadsheet applications
http://www.bom.gov.au/fwo/IDS60801/IDS60801.95663.axf

JavaScript Object Notation format (JSON) in row-major order
http://www.bom.gov.au/fwo/IDS60801/IDS60801.95663.json